createdAt,value
2022-12-26T00:00:55.100Z,15.80
2022-12-26T00:03:22.557Z,14.68
2022-12-26T00:05:49.682Z,12.15
2022-12-26T00:08:16.751Z,11.00
2022-12-26T00:10:43.772Z,9.45
2022-12-26T00:13:38.752Z,8.07
2022-12-26T00:15:57.774Z,7.22
2022-12-26T00:18:24.962Z,7.28
2022-12-26T00:20:52.032Z,6.72
2022-12-26T00:23:19.081Z,7.25
2022-12-26T00:25:46.071Z,7.80
2022-12-26T00:28:13.014Z,7.65
2022-12-26T00:30:40.184Z,12.38
2022-12-26T00:33:07.188Z,14.18
2022-12-26T00:35:34.235Z,12.68
2022-12-26T00:38:01.350Z,14.25
2022-12-26T00:40:28.306Z,7.35
2022-12-26T00:42:55.347Z,5.47
2022-12-26T00:45:22.420Z,4.82
2022-12-26T00:47:49.470Z,6.70
2022-12-26T00:50:16.661Z,7.82
2022-12-26T00:52:43.697Z,7.82
2022-12-26T00:55:11.105Z,6.75
2022-12-26T00:57:38.104Z,7.95
2022-12-26T01:00:05.837Z,7.50
2022-12-26T01:02:38.847Z,7.50
2022-12-26T01:05:10.168Z,6.53
2022-12-26T01:08:21.527Z,6.15
2022-12-26T01:10:26.140Z,6.43
2022-12-26T01:12:53.709Z,6.45
2022-12-26T01:15:20.766Z,7.15
2022-12-26T01:17:47.800Z,8.07
2022-12-26T01:20:14.960Z,7.03
2022-12-26T01:22:42.062Z,7.47
2022-12-26T01:25:10.572Z,7.15
2022-12-26T01:27:37.989Z,7.60
2022-12-26T01:30:06.010Z,7.05
2022-12-26T01:32:33.038Z,7.40
2022-12-26T01:35:00.133Z,7.63
2022-12-26T01:37:27.130Z,7.43
2022-12-26T01:39:54.179Z,7.10
2022-12-26T01:42:24.187Z,8.35
2022-12-26T01:45:07.683Z,9.43
2022-12-26T01:47:43.296Z,8.30
2022-12-26T01:50:25.551Z,4.88
2022-12-26T01:52:54.241Z,5.55
2022-12-26T01:55:22.630Z,4.07
2022-12-26T01:57:55.377Z,4.00
2022-12-26T02:00:22.435Z,4.93
2022-12-26T02:03:08.406Z,3.88
2022-12-26T02:05:35.658Z,3.97
2022-12-26T02:08:26.874Z,4.85
2022-12-26T02:11:30.270Z,3.42
2022-12-26T02:13:57.840Z,4.38
2022-12-26T02:16:25.941Z,3.45
2022-12-26T02:18:53.030Z,3.67
2022-12-26T02:21:54.638Z,2.63
2022-12-26T02:25:17.360Z,2.65
2022-12-26T02:28:18.854Z,2.97
2022-12-26T02:31:53.460Z,2.80
2022-12-26T02:34:27.962Z,3.67
2022-12-26T02:37:24.562Z,3.50
2022-12-26T02:43:37.991Z,4.93
2022-12-26T02:46:51.356Z,5.53
2022-12-26T02:50:22.563Z,5.15
2022-12-26T02:56:53.342Z,6.38
2022-12-26T03:00:16.799Z,9.90
2022-12-26T03:03:45.165Z,8.52
2022-12-26T03:06:41.854Z,10.73
2022-12-26T03:09:32.605Z,9.45
2022-12-26T03:12:25.986Z,10.95
2022-12-26T03:15:01.301Z,11.57
2022-12-26T03:17:43.323Z,11.32
2022-12-26T03:20:18.163Z,10.25
2022-12-26T03:22:54.319Z,10.20
2022-12-26T03:26:10.509Z,10.48
2022-12-26T03:28:38.093Z,11.02
2022-12-26T03:31:08.278Z,9.18
2022-12-26T03:34:00.755Z,10.38
2022-12-26T03:37:11.203Z,10.70
2022-12-26T03:40:30.139Z,16.35
2022-12-26T03:44:02.740Z,18.38
2022-12-26T03:47:04.013Z,12.43
2022-12-26T03:49:55.835Z,11.15
2022-12-26T03:53:10.556Z,12.23
2022-12-26T03:56:24.029Z,12.80
2022-12-26T03:59:35.699Z,13.38
2022-12-26T04:02:25.582Z,8.80
2022-12-26T04:05:14.518Z,9.43
2022-12-26T04:08:05.618Z,7.43
2022-12-26T04:11:01.983Z,7.82
2022-12-26T04:14:17.690Z,5.45
2022-12-26T04:17:20.329Z,4.47
2022-12-26T04:20:27.176Z,3.40
2022-12-26T04:23:25.939Z,5.68
2022-12-26T04:26:20.267Z,6.85
2022-12-26T04:29:05.831Z,7.97
2022-12-26T04:32:04.585Z,9.23
2022-12-26T04:35:10.801Z,10.07
2022-12-26T04:38:02.530Z,9.68
2022-12-26T04:43:46.564Z,12.73
2022-12-26T04:46:19.586Z,11.35
2022-12-26T04:49:09.265Z,14.55
2022-12-26T04:51:36.583Z,11.65
2022-12-26T04:54:05.024Z,12.70
2022-12-26T04:56:32.192Z,12.98
2022-12-26T04:58:59.931Z,13.25
2022-12-26T05:01:45.391Z,12.35
2022-12-26T05:04:36.234Z,10.52
2022-12-26T05:07:24.518Z,10.05
2022-12-26T05:09:53.659Z,7.78
2022-12-26T05:12:20.894Z,8.10
2022-12-26T05:14:47.952Z,6.93
2022-12-26T05:17:33.639Z,7.97
2022-12-26T05:20:19.061Z,9.10
2022-12-26T05:23:05.472Z,11.07
2022-12-26T05:25:58.870Z,10.23
2022-12-26T05:28:41.905Z,12.70
2022-12-26T05:31:17.478Z,13.70
2022-12-26T05:34:04.088Z,21.13
2022-12-26T05:36:36.408Z,24.33
2022-12-26T05:39:04.212Z,17.83
2022-12-26T05:41:31.200Z,17.27
2022-12-26T05:43:58.283Z,12.88
2022-12-26T05:46:25.420Z,11.65
2022-12-26T05:48:52.453Z,13.40
2022-12-26T05:51:19.545Z,14.55
2022-12-26T05:53:46.959Z,14.20
2022-12-26T05:56:15.825Z,12.48
2022-12-26T05:58:43.508Z,13.45
2022-12-26T06:01:20.942Z,13.45
2022-12-26T06:03:51.269Z,15.07
2022-12-26T06:06:19.453Z,15.18
2022-12-26T06:08:51.603Z,12.25
2022-12-26T06:11:19.843Z,9.18
2022-12-26T06:13:47.003Z,8.00
2022-12-26T06:16:16.612Z,10.00
2022-12-26T06:18:43.985Z,10.10
2022-12-26T06:21:16.963Z,9.15
2022-12-26T06:23:44.308Z,7.90
2022-12-26T06:26:12.843Z,9.80
2022-12-26T06:28:41.547Z,9.82
2022-12-26T06:31:14.954Z,7.55
2022-12-26T06:33:42.391Z,7.70
2022-12-26T06:36:18.084Z,10.65
2022-12-26T06:38:45.582Z,9.48
2022-12-26T06:41:16.077Z,7.35
2022-12-26T06:43:44.072Z,7.68
2022-12-26T06:46:15.140Z,7.70
2022-12-26T06:48:42.741Z,5.97
2022-12-26T06:51:12.877Z,6.28
2022-12-26T06:53:40.443Z,6.60
2022-12-26T06:56:13.625Z,7.85
2022-12-26T06:58:41.061Z,8.60
2022-12-26T07:01:13.800Z,7.28
2022-12-26T07:03:48.473Z,7.22
2022-12-26T07:06:38.418Z,7.55
2022-12-26T07:09:14.729Z,7.40
2022-12-26T07:11:44.734Z,7.25
2022-12-26T07:14:14.108Z,7.38
2022-12-26T07:16:44.645Z,7.25
2022-12-26T07:19:14.185Z,8.20
2022-12-26T07:21:41.446Z,10.35
2022-12-26T07:24:16.737Z,11.68
2022-12-26T07:26:44.760Z,9.80
2022-12-26T07:29:12.481Z,11.00
2022-12-26T07:31:40.468Z,10.27
2022-12-26T07:34:07.989Z,11.50
2022-12-26T07:36:35.062Z,11.35
2022-12-26T07:39:02.146Z,11.05
2022-12-26T07:41:48.178Z,12.55
2022-12-26T07:44:15.172Z,13.20
2022-12-26T07:46:42.236Z,15.73
2022-12-26T07:49:11.206Z,12.23
2022-12-26T07:51:38.519Z,13.77
2022-12-26T07:54:11.095Z,13.82
2022-12-26T07:56:39.017Z,16.88
2022-12-26T07:59:06.044Z,15.07
2022-12-26T08:01:33.353Z,16.15
2022-12-26T08:04:00.577Z,13.88
2022-12-26T08:06:27.963Z,13.57
2022-12-26T08:08:54.972Z,13.98
2022-12-26T08:11:23.889Z,14.02
2022-12-26T08:13:52.253Z,14.00
2022-12-26T08:16:20.166Z,16.17
2022-12-26T08:18:47.479Z,14.50
2022-12-26T08:21:14.479Z,16.33
2022-12-26T08:23:41.547Z,15.80
2022-12-26T08:26:11.219Z,14.48
2022-12-26T08:28:42.174Z,14.65
2022-12-26T08:31:11.058Z,13.88
2022-12-26T08:33:38.224Z,12.85
2022-12-26T08:36:10.271Z,11.52
2022-12-26T08:38:37.664Z,10.90
2022-12-26T08:41:05.040Z,11.30
2022-12-26T08:44:03.170Z,10.98
2022-12-26T08:46:21.724Z,10.98
2022-12-26T08:48:50.130Z,12.30
2022-12-26T08:51:20.373Z,11.32
2022-12-26T08:53:49.741Z,11.55
2022-12-26T08:56:19.294Z,12.77
2022-12-26T08:58:46.847Z,11.07
2022-12-26T09:01:22.800Z,10.43
2022-12-26T09:03:54.049Z,11.18
2022-12-26T09:06:21.936Z,11.82
2022-12-26T09:08:49.376Z,10.50
2022-12-26T09:11:20.246Z,13.02
2022-12-26T09:13:47.742Z,10.80
2022-12-26T09:16:25.675Z,10.18
2022-12-26T09:18:58.630Z,9.82
2022-12-26T09:21:26.285Z,12.38
2022-12-26T09:24:01.214Z,12.00
2022-12-26T09:26:29.139Z,11.45
2022-12-26T09:28:56.374Z,10.45
2022-12-26T09:31:26.980Z,11.23
2022-12-26T09:33:54.124Z,12.00
2022-12-26T09:36:29.496Z,12.93
2022-12-26T09:38:57.816Z,11.18
2022-12-26T09:42:13.343Z,13.18
2022-12-26T09:45:19.034Z,11.07
2022-12-26T09:48:14.099Z,18.45
2022-12-26T09:50:43.405Z,11.52
2022-12-26T09:53:34.729Z,12.32
2022-12-26T09:56:08.626Z,14.23
2022-12-26T09:59:01.144Z,12.25
2022-12-26T10:01:35.878Z,11.32
2022-12-26T10:04:08.828Z,12.93
2022-12-26T10:06:48.385Z,10.85
2022-12-26T10:09:48.542Z,10.98
2022-12-26T10:12:58.636Z,11.35
2022-12-26T10:15:55.530Z,13.15
2022-12-26T10:19:11.890Z,12.02
2022-12-26T10:22:01.570Z,12.32
2022-12-26T10:24:33.550Z,12.95
2022-12-26T10:27:05.401Z,12.60
2022-12-26T10:29:39.344Z,11.27
2022-12-26T10:32:14.146Z,11.50
2022-12-26T10:34:47.339Z,9.98
2022-12-26T10:37:40.608Z,11.73
2022-12-26T10:40:35.949Z,11.82
2022-12-26T10:43:30.607Z,12.13
2022-12-26T10:46:36.135Z,10.80
2022-12-26T10:49:04.489Z,11.27
2022-12-26T10:51:31.677Z,8.00
2022-12-26T10:53:58.725Z,10.10
2022-12-26T10:56:26.989Z,9.82
2022-12-26T10:59:04.469Z,9.05
2022-12-26T11:01:37.229Z,9.88
2022-12-26T11:04:44.393Z,9.32
2022-12-26T11:07:12.288Z,9.55
2022-12-26T11:09:42.782Z,10.75
2022-12-26T11:12:26.348Z,9.10
2022-12-26T11:15:02.641Z,9.25
2022-12-26T11:17:33.779Z,8.57
2022-12-26T11:20:24.162Z,7.65
2022-12-26T11:22:52.149Z,8.05
2022-12-26T11:25:27.978Z,9.25
2022-12-26T11:27:59.580Z,11.43
2022-12-26T11:30:33.409Z,10.20
2022-12-26T11:33:13.702Z,9.23
2022-12-26T11:36:17.450Z,10.95
2022-12-26T11:39:04.055Z,9.90
2022-12-26T11:41:39.989Z,10.55
2022-12-26T11:44:35.417Z,9.95
2022-12-26T11:47:17.581Z,10.43
2022-12-26T11:50:05.366Z,9.60
2022-12-26T11:52:46.163Z,9.52
2022-12-26T11:55:33.794Z,10.75
2022-12-26T11:58:29.564Z,9.52
2022-12-26T12:01:12.167Z,11.85
2022-12-26T12:03:50.330Z,10.15
2022-12-26T12:06:44.179Z,8.88
2022-12-26T12:09:45.274Z,9.75
2022-12-26T12:12:47.581Z,11.02
2022-12-26T12:15:31.663Z,12.52
2022-12-26T12:18:21.697Z,9.68
2022-12-26T12:21:32.267Z,13.82
2022-12-26T12:24:32.491Z,10.25
2022-12-26T12:27:17.946Z,9.73
2022-12-26T12:30:20.135Z,11.25
2022-12-26T12:55:21.826Z,10.95
2022-12-26T13:01:14.840Z,9.85
2022-12-26T13:03:58.263Z,10.32
2022-12-26T13:06:56.832Z,10.50
2022-12-26T13:09:37.904Z,10.52
2022-12-26T13:12:14.986Z,10.98
2022-12-26T13:14:51.108Z,11.30
2022-12-26T13:17:23.769Z,10.57
2022-12-26T13:20:17.535Z,9.68
2022-12-26T13:23:08.713Z,12.45
2022-12-26T13:25:43.556Z,12.35
2022-12-26T13:28:18.489Z,13.00
2022-12-26T13:30:45.841Z,13.15
2022-12-26T13:33:16.286Z,12.75
2022-12-26T13:35:59.482Z,14.13
2022-12-26T13:39:18.400Z,14.15
2022-12-26T13:42:14.010Z,14.38
2022-12-26T13:44:41.555Z,15.10
2022-12-26T13:47:35.793Z,11.90
2022-12-26T13:51:07.506Z,13.60
2022-12-26T13:57:02.278Z,14.77
2022-12-26T13:59:36.087Z,13.15
2022-12-26T14:02:32.226Z,12.38
2022-12-26T14:05:45.357Z,13.60
2022-12-26T14:08:55.015Z,14.25
2022-12-26T14:11:51.508Z,12.38
2022-12-26T14:32:48.460Z,9.60
2022-12-26T14:35:37.822Z,10.05
2022-12-26T14:38:43.634Z,10.75
2022-12-26T14:41:35.019Z,10.07
2022-12-26T14:44:43.446Z,9.45
2022-12-26T14:47:10.828Z,10.68
2022-12-26T14:49:40.401Z,11.07
2022-12-26T14:52:46.092Z,13.68
2022-12-26T14:56:07.225Z,16.65
2022-12-26T14:58:50.610Z,14.32
2022-12-26T15:01:47.446Z,11.38
2022-12-26T15:04:30.701Z,9.95
2022-12-26T15:07:39.771Z,16.83
2022-12-26T15:17:00.301Z,20.25
2022-12-26T15:20:09.491Z,21.25
2022-12-26T15:23:25.056Z,19.23
2022-12-26T15:26:19.787Z,22.75
2022-12-26T15:29:17.661Z,18.20
2022-12-26T15:32:07.349Z,18.08
2022-12-26T15:35:08.640Z,18.20
2022-12-26T15:41:11.435Z,14.48
2022-12-26T15:44:03.257Z,17.25
2022-12-26T15:46:33.575Z,15.13
2022-12-26T15:49:32.503Z,12.67
2022-12-26T15:52:55.287Z,13.00
2022-12-26T15:56:04.768Z,13.50
2022-12-26T16:01:48.064Z,15.15
2022-12-26T16:04:26.390Z,18.83
2022-12-26T16:09:53.303Z,16.02
2022-12-26T16:12:41.645Z,24.92
2022-12-26T16:15:17.606Z,14.52
2022-12-26T16:17:46.782Z,14.40
2022-12-26T16:20:40.657Z,13.35
2022-12-26T16:23:14.277Z,14.00
2022-12-26T16:25:48.284Z,11.75
2022-12-26T16:28:16.020Z,13.90
2022-12-26T16:30:43.217Z,14.20
2022-12-26T16:33:14.830Z,15.27
2022-12-26T16:35:43.625Z,12.80
2022-12-26T16:38:17.645Z,12.85
2022-12-26T16:40:48.646Z,12.23
2022-12-26T16:43:37.161Z,13.35
2022-12-26T16:46:07.343Z,9.50
2022-12-26T16:48:37.051Z,9.82
2022-12-26T16:51:07.783Z,10.48
2022-12-26T16:53:52.753Z,12.55
2022-12-26T16:56:34.650Z,11.02
2022-12-26T16:59:54.188Z,12.10
2022-12-26T17:02:31.674Z,7.80
2022-12-26T17:05:20.546Z,7.22
2022-12-26T17:07:50.807Z,7.47
2022-12-26T17:10:25.199Z,8.18
2022-12-26T17:12:54.355Z,7.13
2022-12-26T17:15:24.631Z,7.20
2022-12-26T17:17:51.798Z,7.22
2022-12-26T17:20:35.238Z,6.38
2022-12-26T17:23:39.081Z,5.72
2022-12-26T17:26:28.695Z,5.95
2022-12-26T17:28:55.913Z,5.90
2022-12-26T17:31:43.925Z,7.20
2022-12-26T17:34:20.300Z,6.68
2022-12-26T17:39:34.900Z,5.10
2022-12-26T17:42:02.493Z,5.50
2022-12-26T17:44:44.982Z,5.22
2022-12-26T17:47:27.774Z,4.82
2022-12-26T17:49:55.875Z,4.10
2022-12-26T17:52:27.576Z,4.50
2022-12-26T17:54:57.812Z,5.25
2022-12-26T17:57:27.904Z,5.25
2022-12-26T17:59:56.115Z,7.18
2022-12-26T18:02:24.248Z,7.85
2022-12-26T18:04:51.421Z,8.40
2022-12-26T18:07:27.231Z,12.40
2022-12-26T18:09:58.209Z,13.23
2022-12-26T18:12:25.541Z,14.65
2022-12-26T18:14:56.017Z,16.77
2022-12-26T18:17:29.245Z,15.68
2022-12-26T18:19:57.987Z,16.95
2022-12-26T18:22:28.031Z,16.25
2022-12-26T18:24:54.977Z,14.23
2022-12-26T18:27:29.383Z,12.57
2022-12-26T18:29:57.026Z,12.07
2022-12-26T18:32:29.714Z,15.55
2022-12-26T18:34:57.606Z,13.85
2022-12-26T18:37:28.402Z,14.55
2022-12-26T18:39:55.672Z,15.93
2022-12-26T18:42:24.161Z,16.67
2022-12-26T18:44:51.186Z,19.90
2022-12-26T18:47:20.745Z,17.27
2022-12-26T18:49:48.507Z,20.23
2022-12-26T18:52:17.681Z,20.00
2022-12-26T18:54:45.148Z,21.92
2022-12-26T18:57:18.552Z,21.17
2022-12-26T18:59:46.576Z,17.55
2022-12-26T19:02:18.770Z,17.88
2022-12-26T19:04:48.825Z,16.30
2022-12-26T19:07:18.704Z,14.85
2022-12-26T19:09:47.826Z,15.40
2022-12-26T19:12:15.897Z,16.00
2022-12-26T19:14:45.225Z,13.30
2022-12-26T19:17:12.460Z,12.90
2022-12-26T19:19:39.497Z,11.70
2022-12-26T19:22:06.789Z,10.65
2022-12-26T19:24:34.488Z,12.57
2022-12-26T19:27:02.821Z,12.00
2022-12-26T19:29:30.071Z,12.93
2022-12-26T19:31:57.459Z,12.93
2022-12-26T19:34:24.906Z,13.05
2022-12-26T19:36:52.041Z,15.15
2022-12-26T19:39:19.378Z,16.10
2022-12-26T19:41:46.483Z,13.65
2022-12-26T19:44:13.547Z,13.43
2022-12-26T19:46:40.680Z,17.42
2022-12-26T19:49:07.778Z,16.63
2022-12-26T19:51:34.944Z,16.35
2022-12-26T19:54:02.111Z,17.10
2022-12-26T19:56:29.393Z,16.05
2022-12-26T19:58:57.161Z,16.67
2022-12-26T20:01:27.093Z,19.55
2022-12-26T20:04:12.261Z,22.65
2022-12-26T20:06:39.953Z,18.75
2022-12-26T20:09:10.980Z,22.88
2022-12-26T20:11:41.028Z,26.02
2022-12-26T20:14:11.635Z,26.85
2022-12-26T20:17:09.188Z,24.75
2022-12-26T20:19:27.466Z,28.17
2022-12-26T20:21:54.869Z,27.98
2022-12-26T20:24:23.242Z,26.02
2022-12-26T20:26:50.842Z,27.33
2022-12-26T20:29:18.266Z,22.95
2022-12-26T20:31:45.380Z,18.45
2022-12-26T20:34:12.982Z,11.75
2022-12-26T20:36:40.687Z,10.73
2022-12-26T20:39:13.365Z,9.85
2022-12-26T20:41:40.376Z,9.73
2022-12-26T20:44:07.626Z,10.88
2022-12-26T20:46:35.774Z,11.23
2022-12-26T20:49:05.486Z,12.38
2022-12-26T20:51:37.812Z,13.02
2022-12-26T20:54:09.635Z,13.35
2022-12-26T20:59:06.267Z,13.02
2022-12-26T21:01:33.468Z,11.88
2022-12-26T21:04:00.800Z,11.02
2022-12-26T21:06:31.619Z,12.63
2022-12-26T21:08:59.319Z,11.93
2022-12-26T21:11:38.393Z,12.13
2022-12-26T21:14:17.905Z,11.73
2022-12-26T21:16:56.515Z,13.32
2022-12-26T21:19:25.128Z,14.05
2022-12-26T21:21:54.503Z,14.40
2022-12-26T21:24:30.615Z,12.73
2022-12-26T21:26:58.132Z,13.95
2022-12-26T21:29:28.225Z,13.50
2022-12-26T21:31:56.534Z,13.23
2022-12-26T21:34:26.331Z,12.73
2022-12-26T21:37:12.955Z,13.27
2022-12-26T21:39:41.284Z,14.98
2022-12-26T21:42:09.656Z,13.82
2022-12-26T21:44:37.232Z,11.75
2022-12-26T21:47:10.421Z,13.00
2022-12-26T21:49:37.734Z,13.48
2022-12-26T21:52:06.254Z,13.15
2022-12-26T21:54:52.362Z,14.77
2022-12-26T21:57:19.894Z,13.73
2022-12-26T21:59:59.463Z,14.63
2022-12-26T22:02:54.277Z,14.35
2022-12-26T22:05:26.679Z,14.70
2022-12-26T22:07:59.330Z,14.18
2022-12-26T22:10:48.064Z,14.48
2022-12-26T22:13:15.424Z,15.57
2022-12-26T22:16:02.381Z,13.20
2022-12-26T22:18:31.441Z,15.63
2022-12-26T22:21:20.717Z,15.70
2022-12-26T22:23:50.750Z,14.60
2022-12-26T22:26:18.532Z,15.10
2022-12-26T22:28:46.023Z,15.45
2022-12-26T22:31:28.621Z,16.80
2022-12-26T22:33:58.192Z,15.52
2022-12-26T22:36:25.783Z,14.98
2022-12-26T22:38:52.919Z,15.68
2022-12-26T22:41:20.126Z,15.57
2022-12-26T22:43:47.343Z,15.88
2022-12-26T22:46:14.690Z,15.63
2022-12-26T22:48:41.968Z,15.57
2022-12-26T22:51:09.585Z,13.75
2022-12-26T22:53:36.581Z,14.70
2022-12-26T22:56:06.329Z,16.58
2022-12-26T22:58:33.999Z,15.07
2022-12-26T23:01:01.215Z,16.35
2022-12-26T23:03:29.360Z,15.00
2022-12-26T23:05:56.905Z,14.32
2022-12-26T23:08:27.100Z,14.60
2022-12-26T23:10:57.159Z,15.25
2022-12-26T23:13:25.129Z,14.45
2022-12-26T23:16:03.103Z,15.55
2022-12-26T23:18:59.474Z,14.15
2022-12-26T23:21:39.016Z,14.38
2022-12-26T23:24:28.884Z,13.85
2022-12-26T23:27:37.718Z,14.18
2022-12-26T23:30:20.907Z,12.90
2022-12-26T23:32:51.441Z,14.60
2022-12-26T23:35:19.987Z,16.23
2022-12-26T23:37:47.354Z,14.02
2022-12-26T23:40:15.546Z,14.48
2022-12-26T23:42:42.819Z,16.38
2022-12-26T23:45:11.376Z,15.70
2022-12-26T23:47:39.988Z,15.80
2022-12-26T23:50:08.698Z,17.15
2022-12-26T23:52:36.640Z,16.02
2022-12-26T23:55:04.249Z,20.00
2022-12-26T23:57:31.412Z,17.65
2022-12-26T23:59:58.358Z,18.60
